KDAB/DAB METAR and TAF weather

Enter ICAO airport designator
Station Type Date Time Source
KDAB METAR 2019/12/14 10:53 UTC NOAA

KDAB 141053Z 20010G18KT 10SM -TSRA SCT012 BKN018 BKN032CB 22/21 A2969 RMK AO2 LTG DSNT N AND NE SLP053 CONS LTGIC DSNT N-NE NW TS DSNT N-NE NW P0000 T02170211


Station Type Date Time Source
KDAB Decoded METAR 2019/12/14 10:53 UTC NOAA

DAYTONA BEACH INTERNATIONAL, FL, United States (KDAB) 29-10N 81-04W 9M
Dec 14, 2019 - 05:53 AM EST / 2019.12.14 1053 UTC
Wind: from the SSW (200 degrees) at 12 MPH (10 KT) gusting to 21 MPH (18 KT):0
Visibility: 10 mile(s):0
Sky conditions: mostly cloudy
Weather: light rain with thunder; Cumulonimbus clouds, lightning observed
Precipitation last hour: A trace
Temperature: 71.1 F (21.7 C)
Dew Point: 70.0 F (21.1 C)
Relative Humidity: 96%
Pressure (altimeter): 29.69 in. Hg (1005 hPa)
ob: KDAB 141053Z 20010G18KT 10SM -TSRA SCT012 BKN018 BKN032CB 22/21 A2969 RMK AO2 LTG DSNT N AND NE SLP053 CONS LTGIC DSNT N-NE NW TS DSNT N-NE NW P0000 T02170211
cycle: 11

Station Type Date Time Source
KDAB TAF 2019/12/14 11:48 UTC NOAA

TAF
AMD KDAB 141041Z 1411/1506 21011KT P6SM VCTS BKN015CB OVC030
TEMPO 1411/1412 27020G30KT 2SM +TSRA BKN020CB
FM141200 23010KT P6SM VCSH SCT030 BKN050
FM141400 27012G19KT P6SM SCT250
FM150000 28003KT P6SM SKC

Example: see airport list